createdAt,value
2023-05-18T00:00:20.089Z,22.01
2023-05-18T00:00:51.556Z,22.00
2023-05-18T00:01:23.058Z,22.02
2023-05-18T00:01:54.531Z,22.01
2023-05-18T00:02:26.092Z,22.00
2023-05-18T00:02:57.892Z,22.00
2023-05-18T00:03:29.693Z,21.97
2023-05-18T00:04:01.396Z,22.02
2023-05-18T00:04:33.070Z,22.02
2023-05-18T00:05:04.675Z,22.05
2023-05-18T00:05:36.116Z,22.04
2023-05-18T00:06:07.610Z,22.06
2023-05-18T00:06:39.104Z,22.07
2023-05-18T00:07:10.591Z,22.04
2023-05-18T00:07:42.052Z,22.05
2023-05-18T00:08:13.616Z,22.01
2023-05-18T00:08:45.094Z,22.01
2023-05-18T00:09:16.587Z,22.03
2023-05-18T00:09:48.124Z,22.02
2023-05-18T00:10:19.643Z,22.04
2023-05-18T00:10:51.142Z,22.04
2023-05-18T00:11:22.590Z,22.06
2023-05-18T00:11:54.059Z,22.00
2023-05-18T00:12:25.533Z,22.01
2023-05-18T00:12:56.975Z,21.98
2023-05-18T00:13:28.512Z,22.02
2023-05-18T00:14:00.086Z,22.04
2023-05-18T00:14:31.634Z,22.03
2023-05-18T00:15:03.119Z,22.01
2023-05-18T00:15:34.600Z,22.00
2023-05-18T00:16:06.153Z,21.96
2023-05-18T00:16:37.730Z,21.98
2023-05-18T00:17:09.265Z,21.98
2023-05-18T00:17:40.780Z,22.01
2023-05-18T00:18:12.319Z,22.05
2023-05-18T00:18:43.959Z,22.03
2023-05-18T00:19:15.533Z,22.00
2023-05-18T00:19:47.034Z,21.98
2023-05-18T00:20:18.472Z,21.98
2023-05-18T00:20:49.924Z,22.01
2023-05-18T00:21:21.442Z,22.01
2023-05-18T00:21:52.896Z,22.03
2023-05-18T00:22:26.215Z,22.07
2023-05-18T00:22:57.718Z,22.01
2023-05-18T00:23:29.419Z,22.01
2023-05-18T00:24:00.926Z,21.99
2023-05-18T00:24:32.402Z,22.03
2023-05-18T00:25:05.098Z,22.00
2023-05-18T00:25:36.680Z,22.05
2023-05-18T00:26:08.125Z,22.04
2023-05-18T00:26:39.791Z,22.03
2023-05-18T00:27:11.223Z,22.02
2023-05-18T00:27:42.620Z,22.00
2023-05-18T00:28:14.100Z,22.04
2023-05-18T00:28:45.575Z,22.03
2023-05-18T00:29:17.174Z,22.05
2023-05-18T00:29:48.634Z,22.08
2023-05-18T00:30:20.127Z,22.04
2023-05-18T00:30:51.549Z,22.05
2023-05-18T00:31:23.042Z,22.04
2023-05-18T00:31:54.600Z,22.01
2023-05-18T00:32:26.190Z,22.02
2023-05-18T00:32:57.718Z,22.09
2023-05-18T00:33:29.205Z,22.04
2023-05-18T00:34:00.705Z,22.08
2023-05-18T00:34:32.252Z,22.01
2023-05-18T00:35:03.749Z,22.02
2023-05-18T00:35:35.238Z,22.05
2023-05-18T00:36:06.753Z,22.01
2023-05-18T00:36:38.253Z,22.02
2023-05-18T00:37:09.688Z,22.05
2023-05-18T00:37:41.209Z,22.05
2023-05-18T00:38:12.686Z,22.03
2023-05-18T00:38:44.193Z,22.06
2023-05-18T00:39:15.732Z,22.04
2023-05-18T00:39:47.300Z,22.05
2023-05-18T00:40:18.806Z,22.01
2023-05-18T00:40:50.273Z,22.03
2023-05-18T00:41:21.741Z,22.03
2023-05-18T00:41:53.205Z,22.07
2023-05-18T00:42:24.653Z,22.07
2023-05-18T00:42:56.136Z,22.05
2023-05-18T00:43:30.521Z,22.04
2023-05-18T00:44:02.015Z,22.06
2023-05-18T00:44:33.476Z,22.03
2023-05-18T00:45:05.002Z,22.03
2023-05-18T00:45:36.463Z,22.04
2023-05-18T00:46:08.026Z,22.05
2023-05-18T00:46:39.519Z,22.02
2023-05-18T00:47:11.009Z,22.03
2023-05-18T00:47:42.503Z,22.01
2023-05-18T00:48:14.072Z,22.01
2023-05-18T00:48:45.580Z,22.07
2023-05-18T00:49:17.074Z,22.06
2023-05-18T00:49:48.560Z,22.03
2023-05-18T00:50:20.071Z,22.04
2023-05-18T00:50:51.527Z,22.03
2023-05-18T00:51:23.028Z,22.04
2023-05-18T00:51:54.451Z,22.03
2023-05-18T00:52:26.009Z,22.07
2023-05-18T00:52:57.514Z,22.08
2023-05-18T00:53:28.974Z,22.05
2023-05-18T00:54:00.453Z,22.06
2023-05-18T00:54:31.964Z,22.04
2023-05-18T00:55:03.453Z,22.03
2023-05-18T00:55:34.976Z,22.02
2023-05-18T00:56:06.437Z,22.03
2023-05-18T00:56:37.883Z,22.03
2023-05-18T00:57:09.371Z,22.04
2023-05-18T00:57:40.803Z,22.04
2023-05-18T00:58:12.348Z,22.05
2023-05-18T00:58:43.909Z,22.02
2023-05-18T00:59:15.443Z,22.01
2023-05-18T00:59:46.867Z,22.03
2023-05-18T01:00:18.363Z,22.08
2023-05-18T01:00:49.855Z,22.09
2023-05-18T01:01:21.346Z,22.05
2023-05-18T01:01:52.920Z,22.05
2023-05-18T01:02:24.522Z,22.06
2023-05-18T01:02:56.106Z,22.02
2023-05-18T01:03:27.741Z,22.06
2023-05-18T01:03:59.253Z,22.00
2023-05-18T01:04:30.774Z,22.00
2023-05-18T01:05:02.279Z,21.99
2023-05-18T01:05:33.806Z,21.98
2023-05-18T01:06:05.348Z,21.99
2023-05-18T01:06:36.883Z,21.98
2023-05-18T01:07:08.365Z,21.94
2023-05-18T01:07:39.849Z,21.96
2023-05-18T01:08:11.310Z,21.96
2023-05-18T01:08:42.738Z,21.95
2023-05-18T01:09:14.262Z,21.96
2023-05-18T01:09:45.792Z,21.98
2023-05-18T01:10:17.326Z,21.96
2023-05-18T01:10:48.805Z,21.94
2023-05-18T01:11:20.329Z,21.96
2023-05-18T01:11:51.840Z,21.96
2023-05-18T01:12:23.287Z,21.96
2023-05-18T01:12:54.741Z,21.95
2023-05-18T01:13:26.201Z,21.95
2023-05-18T01:13:57.687Z,21.96
2023-05-18T01:14:30.685Z,21.93
2023-05-18T01:15:02.374Z,21.95
2023-05-18T01:15:33.938Z,21.95
2023-05-18T01:16:05.447Z,21.98
2023-05-18T01:16:36.940Z,21.96
2023-05-18T01:17:08.456Z,21.96
2023-05-18T01:17:39.973Z,21.95
2023-05-18T01:18:11.444Z,21.96
2023-05-18T01:18:42.970Z,21.94
2023-05-18T01:19:14.498Z,21.94
2023-05-18T01:19:46.006Z,21.94
2023-05-18T01:20:17.447Z,21.94
2023-05-18T01:20:48.943Z,21.94
2023-05-18T01:21:20.480Z,21.95
2023-05-18T01:21:51.939Z,21.95
2023-05-18T01:22:23.440Z,21.96
2023-05-18T01:22:54.906Z,21.95
2023-05-18T01:23:26.336Z,21.94
2023-05-18T01:24:00.412Z,21.95
2023-05-18T01:24:31.982Z,21.93
2023-05-18T01:25:03.474Z,21.92
2023-05-18T01:25:34.956Z,21.90
2023-05-18T01:26:06.490Z,21.94
2023-05-18T01:26:38.197Z,21.97
2023-05-18T01:27:09.767Z,21.96
2023-05-18T01:27:41.223Z,21.94
2023-05-18T01:28:12.693Z,21.94
2023-05-18T01:28:44.186Z,21.93
2023-05-18T01:29:15.636Z,21.97
2023-05-18T01:29:47.172Z,21.94
2023-05-18T01:30:18.754Z,21.94
2023-05-18T01:30:50.333Z,21.93
2023-05-18T01:31:21.939Z,21.95
2023-05-18T01:31:53.611Z,21.92
2023-05-18T01:32:25.325Z,21.95
2023-05-18T01:32:56.873Z,21.94
2023-05-18T01:33:28.434Z,21.94
2023-05-18T01:33:59.932Z,21.93
2023-05-18T01:34:31.573Z,21.92
2023-05-18T01:35:03.149Z,21.93
2023-05-18T01:35:34.771Z,21.90
2023-05-18T01:36:06.254Z,21.92
2023-05-18T01:36:37.901Z,21.94
2023-05-18T01:37:09.530Z,21.95
2023-05-18T01:37:41.213Z,21.94
2023-05-18T01:38:12.841Z,21.94
2023-05-18T01:38:44.568Z,21.94
2023-05-18T01:39:16.110Z,21.92
2023-05-18T01:39:47.755Z,21.92
2023-05-18T01:40:19.306Z,21.94
2023-05-18T01:40:50.873Z,21.92
2023-05-18T01:41:22.370Z,21.94
2023-05-18T01:41:53.900Z,21.93
2023-05-18T01:42:25.328Z,21.93
2023-05-18T01:42:56.863Z,21.94
2023-05-18T01:43:28.350Z,21.92
2023-05-18T01:43:59.891Z,21.98
2023-05-18T01:44:31.358Z,21.94
2023-05-18T01:45:02.985Z,21.94
2023-05-18T01:45:34.432Z,21.95
2023-05-18T01:46:05.969Z,21.97
2023-05-18T01:46:37.504Z,21.94
2023-05-18T01:47:09.070Z,21.92
2023-05-18T01:47:40.593Z,21.91
2023-05-18T01:48:12.248Z,21.92
2023-05-18T01:48:43.793Z,21.94
2023-05-18T01:49:15.342Z,21.94
2023-05-18T01:49:46.865Z,21.93
2023-05-18T01:50:18.350Z,21.97
2023-05-18T01:50:49.764Z,21.96
2023-05-18T01:51:21.347Z,21.93
2023-05-18T01:51:52.832Z,21.95
2023-05-18T01:52:24.285Z,21.95
2023-05-18T01:52:55.761Z,21.93
2023-05-18T01:53:27.245Z,21.95
2023-05-18T01:53:58.742Z,21.95
2023-05-18T01:54:30.218Z,21.92
2023-05-18T01:55:01.718Z,21.97
2023-05-18T01:55:33.267Z,21.95
2023-05-18T01:56:04.745Z,21.95
2023-05-18T01:56:36.232Z,21.94
2023-05-18T01:57:07.676Z,21.97
2023-05-18T01:57:39.151Z,21.97
2023-05-18T01:58:10.665Z,21.98
2023-05-18T01:58:42.416Z,21.97
2023-05-18T01:59:14.482Z,21.97
2023-05-18T01:59:46.236Z,21.96
2023-05-18T02:00:17.764Z,21.95
2023-05-18T02:00:49.229Z,21.94
2023-05-18T02:01:20.822Z,21.95
2023-05-18T02:01:59.349Z,21.95
2023-05-18T02:02:31.494Z,21.94
2023-05-18T02:03:03.099Z,21.94
2023-05-18T02:03:34.789Z,21.94
2023-05-18T02:04:06.493Z,21.95
2023-05-18T02:04:38.020Z,21.96
2023-05-18T02:05:09.544Z,21.93
2023-05-18T02:05:41.030Z,21.91
2023-05-18T02:06:12.452Z,21.90
2023-05-18T02:06:43.976Z,21.92
2023-05-18T02:07:15.426Z,21.90
2023-05-18T02:07:46.903Z,21.92
2023-05-18T02:08:18.363Z,21.91
2023-05-18T02:08:50.027Z,21.92
2023-05-18T02:09:21.533Z,21.92
2023-05-18T02:09:53.055Z,21.94
2023-05-18T02:10:24.579Z,21.93
2023-05-18T02:10:56.046Z,21.94
2023-05-18T02:11:27.495Z,21.94
2023-05-18T02:11:59.023Z,21.95
2023-05-18T02:12:30.500Z,21.93
2023-05-18T02:13:01.951Z,21.93
2023-05-18T02:13:33.491Z,21.92
2023-05-18T02:14:04.957Z,21.92
2023-05-18T02:14:36.454Z,21.91
2023-05-18T02:15:07.928Z,21.93
2023-05-18T02:15:39.418Z,21.92
2023-05-18T02:16:10.937Z,21.92
2023-05-18T02:16:42.588Z,21.92
2023-05-18T02:17:14.208Z,21.92
2023-05-18T02:17:46.030Z,21.93
2023-05-18T02:18:17.532Z,21.93
2023-05-18T02:18:49.011Z,21.94
2023-05-18T02:19:20.650Z,21.92
2023-05-18T02:19:52.226Z,21.92
2023-05-18T02:20:23.643Z,21.93
2023-05-18T02:20:55.081Z,21.92
2023-05-18T02:21:29.521Z,21.93
2023-05-18T02:22:00.987Z,21.92
2023-05-18T02:22:32.483Z,21.92
2023-05-18T02:23:03.961Z,21.93
2023-05-18T02:23:35.401Z,21.94
2023-05-18T02:24:07.366Z,21.90
2023-05-18T02:24:38.818Z,21.91
2023-05-18T02:25:10.292Z,21.91
2023-05-18T02:25:41.753Z,21.92
2023-05-18T02:26:13.201Z,21.91
2023-05-18T02:26:44.654Z,21.91
2023-05-18T02:27:16.209Z,21.92
2023-05-18T02:27:47.777Z,21.92
2023-05-18T02:28:19.253Z,21.91
2023-05-18T02:28:50.748Z,21.93
2023-05-18T02:29:22.282Z,21.94
2023-05-18T02:29:54.035Z,21.94
2023-05-18T02:30:25.501Z,21.93
2023-05-18T02:30:56.933Z,21.92
2023-05-18T02:31:28.563Z,21.92
2023-05-18T02:32:00.051Z,21.92
2023-05-18T02:32:34.630Z,21.93
2023-05-18T02:33:06.394Z,21.92
2023-05-18T02:33:37.892Z,21.92
2023-05-18T02:34:09.324Z,21.92
2023-05-18T02:34:40.782Z,21.93
2023-05-18T02:35:12.241Z,21.92
2023-05-18T02:35:43.674Z,21.92
2023-05-18T02:36:15.146Z,21.93
2023-05-18T02:36:46.699Z,21.93
2023-05-18T02:37:18.150Z,21.94
2023-05-18T02:37:49.592Z,21.92
2023-05-18T02:38:21.173Z,21.92
2023-05-18T02:38:52.681Z,21.90
2023-05-18T02:39:24.166Z,21.92
2023-05-18T02:39:55.659Z,21.93
2023-05-18T02:40:27.165Z,21.92
2023-05-18T02:40:58.614Z,21.93
2023-05-18T02:41:30.110Z,21.93
2023-05-18T02:42:01.604Z,21.94
2023-05-18T02:42:33.091Z,21.93
2023-05-18T02:43:04.572Z,21.95
2023-05-18T02:43:36.113Z,21.93
2023-05-18T02:44:07.581Z,21.90
2023-05-18T02:44:38.984Z,21.90
2023-05-18T02:45:10.416Z,21.91
2023-05-18T02:45:41.932Z,21.92
2023-05-18T02:46:13.457Z,21.93
2023-05-18T02:46:44.935Z,21.91
2023-05-18T02:47:16.373Z,21.92
2023-05-18T02:47:47.910Z,21.92
2023-05-18T02:48:19.399Z,21.91
2023-05-18T02:48:50.897Z,21.92
2023-05-18T02:49:22.347Z,21.93
2023-05-18T02:49:53.801Z,21.94
2023-05-18T02:50:25.262Z,21.92
2023-05-18T02:50:56.723Z,21.93
2023-05-18T02:51:28.137Z,21.92
2023-05-18T02:51:59.575Z,21.93
2023-05-18T02:52:31.027Z,21.92
2023-05-18T02:53:02.528Z,21.92
2023-05-18T02:53:34.063Z,21.94
2023-05-18T02:54:47.953Z,21.91
2023-05-18T02:55:19.215Z,21.94
2023-05-18T02:55:50.641Z,21.92
2023-05-18T02:56:22.038Z,21.95
2023-05-18T02:56:53.483Z,21.93
2023-05-18T02:57:24.965Z,21.92
2023-05-18T02:57:56.393Z,21.93
2023-05-18T02:58:27.896Z,21.94
2023-05-18T02:58:59.339Z,21.92
2023-05-18T02:59:30.746Z,21.93
2023-05-18T03:00:02.208Z,21.92
2023-05-18T03:00:33.624Z,21.95
2023-05-18T03:01:05.130Z,21.96
2023-05-18T03:01:36.655Z,21.97
2023-05-18T03:02:08.134Z,21.96
2023-05-18T03:02:39.648Z,21.96
2023-05-18T03:03:11.301Z,21.99
2023-05-18T03:03:42.855Z,21.98
2023-05-18T03:04:14.283Z,21.99
2023-05-18T03:04:46.533Z,21.98
2023-05-18T03:05:19.499Z,22.01
2023-05-18T03:05:50.908Z,21.98
2023-05-18T03:06:22.369Z,21.99
2023-05-18T03:06:53.807Z,21.99
2023-05-18T03:07:25.248Z,22.01
2023-05-18T03:07:56.638Z,22.00
2023-05-18T03:08:28.101Z,22.02
2023-05-18T03:08:59.568Z,21.98
2023-05-18T03:09:30.975Z,22.00
2023-05-18T03:10:02.435Z,22.00
2023-05-18T03:10:33.974Z,21.99
2023-05-18T03:11:05.366Z,21.98
2023-05-18T03:11:36.779Z,22.02
2023-05-18T03:12:08.285Z,22.00
2023-05-18T03:12:39.832Z,22.02
2023-05-18T03:13:11.215Z,22.02
2023-05-18T03:13:42.613Z,22.03
2023-05-18T03:14:14.129Z,22.02
2023-05-18T03:14:45.509Z,22.04
2023-05-18T03:15:16.966Z,22.03
2023-05-18T03:15:48.452Z,22.01
2023-05-18T03:16:19.940Z,21.99
2023-05-18T03:16:51.484Z,22.05
2023-05-18T03:17:23.003Z,22.05
2023-05-18T03:17:54.484Z,22.05
2023-05-18T03:18:25.976Z,22.04
2023-05-18T03:18:57.422Z,22.03
2023-05-18T03:19:28.933Z,22.05
2023-05-18T03:20:00.369Z,22.02
2023-05-18T03:20:31.846Z,22.09
2023-05-18T03:21:03.266Z,22.09
2023-05-18T03:21:34.688Z,22.06
2023-05-18T03:22:06.071Z,22.08
2023-05-18T03:22:37.476Z,22.09
2023-05-18T03:23:08.968Z,22.07
2023-05-18T03:23:40.453Z,22.06
2023-05-18T03:24:11.890Z,22.05
2023-05-18T03:24:43.371Z,22.05
2023-05-18T03:25:14.795Z,22.04
2023-05-18T03:25:46.231Z,22.05
2023-05-18T03:26:17.628Z,22.08
2023-05-18T03:26:49.043Z,22.08
2023-05-18T03:27:20.508Z,22.06
2023-05-18T03:27:51.953Z,22.09
2023-05-18T03:28:23.338Z,22.08
2023-05-18T03:28:54.928Z,22.11
2023-05-18T03:29:26.353Z,22.08
2023-05-18T03:29:57.812Z,22.07
2023-05-18T03:30:29.268Z,22.06
2023-05-18T03:31:00.711Z,22.11
2023-05-18T03:31:32.161Z,22.09
2023-05-18T03:32:03.614Z,22.10
2023-05-18T03:32:35.121Z,22.15
2023-05-18T03:33:06.563Z,22.12
2023-05-18T03:33:38.178Z,22.10
2023-05-18T03:34:09.689Z,22.07
2023-05-18T03:34:41.123Z,22.06
2023-05-18T03:35:12.587Z,22.04
2023-05-18T03:35:44.750Z,22.04
2023-05-18T03:36:17.412Z,22.07
2023-05-18T03:36:48.871Z,22.07
2023-05-18T03:37:20.289Z,22.07
2023-05-18T03:37:51.694Z,22.06
2023-05-18T03:38:23.126Z,22.10
2023-05-18T03:38:54.535Z,22.10
2023-05-18T03:39:25.987Z,22.15
2023-05-18T03:39:57.414Z,22.11
2023-05-18T03:40:28.861Z,22.09
2023-05-18T03:41:00.316Z,22.10
2023-05-18T03:41:31.794Z,22.12
2023-05-18T03:42:03.290Z,22.09
2023-05-18T03:42:34.696Z,22.11
2023-05-18T03:43:06.115Z,22.10
2023-05-18T03:43:37.542Z,22.12
2023-05-18T03:44:08.931Z,22.12
2023-05-18T03:44:40.339Z,22.13
2023-05-18T03:45:11.742Z,22.10
2023-05-18T03:45:43.219Z,22.09
2023-05-18T03:46:14.680Z,22.09
2023-05-18T03:46:46.180Z,22.09
2023-05-18T03:47:17.673Z,22.12
2023-05-18T03:47:49.114Z,22.11
2023-05-18T03:48:20.558Z,22.07
2023-05-18T03:48:52.010Z,22.12
2023-05-18T03:49:23.402Z,22.12
2023-05-18T03:49:54.845Z,22.12
2023-05-18T03:50:26.267Z,22.16
2023-05-18T03:50:57.749Z,22.14
2023-05-18T03:51:29.159Z,22.14
2023-05-18T03:52:00.579Z,22.16
2023-05-18T03:52:32.024Z,22.15
2023-05-18T03:53:03.452Z,22.12
2023-05-18T03:53:34.833Z,22.09
2023-05-18T03:54:06.295Z,22.10
2023-05-18T03:54:37.776Z,22.11
2023-05-18T03:55:09.170Z,22.11
2023-05-18T03:55:40.614Z,22.08
2023-05-18T03:56:12.196Z,22.10
2023-05-18T03:56:43.621Z,22.11
2023-05-18T03:57:15.028Z,22.13
2023-05-18T03:57:46.389Z,22.16
2023-05-18T03:58:17.796Z,22.16
2023-05-18T03:58:49.320Z,22.12
2023-05-18T03:59:20.759Z,22.11
2023-05-18T03:59:52.224Z,22.10
2023-05-18T04:00:23.609Z,22.11
2023-05-18T04:00:55.038Z,22.14
2023-05-18T04:01:26.460Z,22.16
2023-05-18T04:01:57.939Z,22.14
2023-05-18T04:02:29.629Z,22.09
2023-05-18T04:03:01.387Z,22.11
2023-05-18T04:03:32.884Z,22.11
2023-05-18T04:04:04.361Z,22.09
2023-05-18T04:04:35.839Z,22.09
2023-05-18T04:05:07.308Z,22.09
2023-05-18T04:05:38.711Z,22.09
2023-05-18T04:06:10.149Z,22.11
2023-05-18T04:06:41.561Z,22.10
2023-05-18T04:07:14.848Z,22.10
2023-05-18T04:07:46.926Z,22.10
2023-05-18T04:08:18.365Z,22.12
2023-05-18T04:08:49.970Z,22.12
2023-05-18T04:09:21.408Z,22.17
2023-05-18T04:09:52.843Z,22.14
2023-05-18T04:10:24.258Z,22.13
2023-05-18T04:10:55.651Z,22.12
2023-05-18T04:11:27.020Z,22.10
2023-05-18T04:11:58.419Z,22.13
2023-05-18T04:12:29.819Z,22.17
2023-05-18T04:13:01.244Z,22.16
2023-05-18T04:13:32.614Z,22.13
2023-05-18T04:14:04.166Z,22.12
2023-05-18T04:14:35.600Z,22.11
2023-05-18T04:15:07.076Z,22.12
2023-05-18T04:15:38.571Z,22.14
2023-05-18T04:16:10.104Z,22.11
2023-05-18T04:16:41.619Z,22.09
2023-05-18T04:17:13.116Z,22.09
2023-05-18T04:17:44.578Z,22.15
2023-05-18T04:18:16.035Z,22.11
2023-05-18T04:18:47.516Z,22.16
2023-05-18T04:19:19.110Z,22.11
2023-05-18T04:19:50.636Z,22.12
2023-05-18T04:20:22.129Z,22.11
2023-05-18T04:20:53.558Z,22.09
2023-05-18T04:21:24.990Z,22.08
2023-05-18T04:21:56.360Z,22.08
2023-05-18T04:22:27.792Z,22.08
2023-05-18T04:22:59.228Z,22.09
2023-05-18T04:23:30.631Z,22.16
2023-05-18T04:24:02.154Z,22.11
2023-05-18T04:24:33.670Z,22.10
2023-05-18T04:25:05.084Z,22.15
2023-05-18T04:25:36.491Z,22.13
2023-05-18T04:26:07.936Z,22.12
2023-05-18T04:26:39.326Z,22.16
2023-05-18T04:27:10.783Z,22.12
2023-05-18T04:27:42.261Z,22.14
2023-05-18T04:28:13.794Z,22.11
2023-05-18T04:28:45.177Z,22.11
2023-05-18T04:29:16.765Z,22.09
2023-05-18T04:29:48.201Z,22.08
2023-05-18T04:30:19.640Z,22.09
2023-05-18T04:30:51.061Z,22.08
2023-05-18T04:31:22.600Z,22.11
2023-05-18T04:31:54.149Z,22.11
2023-05-18T04:32:25.619Z,22.15
2023-05-18T04:32:57.023Z,22.16
2023-05-18T04:33:28.494Z,22.15
2023-05-18T04:33:59.870Z,22.12
2023-05-18T04:34:31.326Z,22.10
2023-05-18T04:35:02.851Z,22.11
2023-05-18T04:35:34.223Z,22.10
2023-05-18T04:36:05.650Z,22.11
2023-05-18T04:36:37.078Z,22.14
2023-05-18T04:37:08.553Z,22.11
2023-05-18T04:37:39.944Z,22.13
2023-05-18T04:38:11.353Z,22.11
2023-05-18T04:38:42.818Z,22.13
2023-05-18T04:39:14.212Z,22.12
2023-05-18T04:39:45.703Z,22.11
2023-05-18T04:40:17.526Z,22.11
2023-05-18T04:40:49.112Z,22.08
2023-05-18T04:41:20.641Z,22.09
2023-05-18T04:41:52.091Z,22.12
2023-05-18T04:42:23.590Z,22.13
2023-05-18T04:42:54.965Z,22.13
2023-05-18T04:43:26.369Z,22.13
2023-05-18T04:43:57.886Z,22.17
2023-05-18T04:44:29.288Z,22.19
2023-05-18T04:45:00.725Z,22.18
2023-05-18T04:45:32.420Z,22.16
2023-05-18T04:46:04.143Z,22.16
2023-05-18T04:46:35.576Z,22.18
2023-05-18T04:47:07.051Z,22.17
2023-05-18T04:47:38.501Z,22.13
2023-05-18T04:48:09.963Z,22.14
2023-05-18T04:48:41.399Z,22.11
2023-05-18T04:49:12.812Z,22.13
2023-05-18T04:49:44.244Z,22.11
2023-05-18T04:50:15.669Z,22.13
2023-05-18T04:50:47.107Z,22.13
2023-05-18T04:51:18.599Z,22.14
2023-05-18T04:51:50.023Z,22.11
2023-05-18T04:52:21.447Z,22.11
2023-05-18T04:52:52.875Z,22.10
2023-05-18T04:53:24.313Z,22.12
2023-05-18T04:53:55.791Z,22.10
2023-05-18T04:54:27.309Z,22.12
2023-05-18T04:54:58.724Z,22.13
2023-05-18T04:55:30.358Z,22.13
2023-05-18T04:56:02.044Z,22.10
2023-05-18T04:56:33.507Z,22.07
2023-05-18T04:57:04.922Z,22.11
2023-05-18T04:57:36.395Z,22.10
2023-05-18T04:58:07.880Z,22.12
2023-05-18T04:58:39.313Z,22.09
2023-05-18T04:59:10.784Z,22.09
2023-05-18T04:59:42.175Z,22.09
2023-05-18T05:00:13.636Z,22.09
2023-05-18T05:00:45.089Z,22.08
2023-05-18T05:01:16.523Z,22.12
2023-05-18T05:01:48.122Z,22.12
2023-05-18T05:02:19.624Z,22.11
2023-05-18T05:02:51.199Z,22.17
2023-05-18T05:03:22.744Z,22.14
2023-05-18T05:03:54.235Z,22.11
2023-05-18T05:04:25.838Z,22.14
2023-05-18T05:04:57.244Z,22.10
2023-05-18T05:05:28.835Z,22.13
2023-05-18T05:06:00.455Z,22.19
2023-05-18T05:06:31.940Z,22.13
2023-05-18T05:07:03.424Z,22.16
2023-05-18T05:07:34.922Z,22.18
2023-05-18T05:08:06.356Z,22.18
2023-05-18T05:08:37.750Z,22.17
2023-05-18T05:09:09.173Z,22.17
2023-05-18T05:09:40.561Z,22.12
2023-05-18T05:10:11.945Z,22.10
2023-05-18T05:10:43.406Z,22.11
2023-05-18T05:11:14.787Z,22.13
2023-05-18T05:11:46.260Z,22.16
2023-05-18T05:12:17.769Z,22.14
2023-05-18T05:12:49.708Z,22.12
2023-05-18T05:13:21.304Z,22.13
2023-05-18T05:13:52.786Z,22.10
2023-05-18T05:14:24.212Z,22.11
2023-05-18T05:14:55.644Z,22.14
2023-05-18T05:15:27.079Z,22.12
2023-05-18T05:15:58.513Z,22.16
2023-05-18T05:16:30.055Z,22.13
2023-05-18T05:17:01.564Z,22.10
2023-05-18T05:17:33.075Z,22.11
2023-05-18T05:18:04.548Z,22.11
2023-05-18T05:18:35.954Z,22.10
2023-05-18T05:19:07.455Z,22.13
2023-05-18T05:19:38.896Z,22.10
2023-05-18T05:20:10.345Z,22.12
2023-05-18T05:20:41.816Z,22.15
2023-05-18T05:21:13.220Z,22.11
2023-05-18T05:21:44.675Z,22.10
2023-05-18T05:22:16.219Z,22.09
2023-05-18T05:22:47.810Z,22.15
2023-05-18T05:23:19.330Z,22.12
2023-05-18T05:23:51.153Z,22.18
2023-05-18T05:24:22.631Z,22.14
2023-05-18T05:24:54.029Z,22.14
2023-05-18T05:25:25.416Z,22.13
2023-05-18T05:25:56.861Z,22.17
2023-05-18T05:26:28.334Z,22.18
2023-05-18T05:26:59.755Z,22.17
2023-05-18T05:27:31.167Z,22.14
2023-05-18T05:28:02.570Z,22.15
2023-05-18T05:28:33.986Z,22.18
2023-05-18T05:29:05.401Z,22.15
2023-05-18T05:29:36.833Z,22.15
2023-05-18T05:30:08.233Z,22.19
2023-05-18T05:30:39.610Z,22.21
2023-05-18T05:31:11.050Z,22.16
2023-05-18T05:31:42.578Z,22.18
2023-05-18T05:32:14.124Z,22.16
2023-05-18T05:32:45.628Z,22.14
2023-05-18T05:33:17.139Z,22.15
2023-05-18T05:33:48.536Z,22.19
2023-05-18T05:34:20.004Z,22.19
2023-05-18T05:34:51.519Z,22.18
2023-05-18T05:35:22.950Z,22.20
2023-05-18T05:35:54.414Z,22.16
2023-05-18T05:36:25.955Z,22.18
2023-05-18T05:36:57.474Z,22.13
2023-05-18T05:37:28.867Z,22.11
2023-05-18T05:38:00.316Z,22.13
2023-05-18T05:38:31.788Z,22.17
2023-05-18T05:39:03.236Z,22.17
2023-05-18T05:39:34.734Z,22.22
2023-05-18T05:40:06.172Z,22.19
2023-05-18T05:40:37.593Z,22.20
2023-05-18T05:41:08.979Z,22.16
2023-05-18T05:41:40.423Z,22.18
2023-05-18T05:42:11.836Z,22.16
2023-05-18T05:42:43.301Z,22.19
2023-05-18T05:43:14.750Z,22.18
2023-05-18T05:43:46.176Z,22.16
2023-05-18T05:44:17.726Z,22.18
2023-05-18T05:44:49.260Z,22.20
2023-05-18T05:45:20.706Z,22.18
2023-05-18T05:45:52.302Z,22.16
2023-05-18T05:46:24.027Z,22.22
2023-05-18T05:46:55.448Z,22.23
2023-05-18T05:47:26.936Z,22.22
2023-05-18T05:47:58.463Z,22.17
2023-05-18T05:48:29.947Z,22.23
2023-05-18T05:49:01.384Z,22.21
2023-05-18T05:49:32.835Z,22.21
2023-05-18T05:50:04.359Z,22.21
2023-05-18T05:50:35.752Z,22.26
2023-05-18T05:51:07.198Z,22.20
2023-05-18T05:51:38.606Z,22.23
2023-05-18T05:52:10.021Z,22.21
2023-05-18T05:52:41.451Z,22.18
2023-05-18T05:53:12.876Z,22.19
2023-05-18T05:53:44.262Z,22.21
2023-05-18T05:54:15.700Z,22.21
2023-05-18T05:54:47.095Z,22.17
2023-05-18T05:55:18.570Z,22.19
2023-05-18T05:55:49.968Z,22.19
2023-05-18T05:56:21.438Z,22.20
2023-05-18T05:56:52.847Z,22.19
2023-05-18T05:57:24.245Z,22.19
2023-05-18T05:57:55.714Z,22.19
2023-05-18T05:58:27.115Z,22.15
2023-05-18T05:58:58.575Z,22.17
2023-05-18T05:59:29.972Z,22.19
2023-05-18T06:00:01.513Z,22.19
2023-05-18T06:00:33.113Z,22.22
2023-05-18T06:01:04.550Z,22.20
2023-05-18T06:01:36.015Z,22.19
2023-05-18T06:02:07.486Z,22.14
2023-05-18T06:02:39.284Z,22.16
2023-05-18T06:03:10.910Z,22.19
2023-05-18T06:03:42.333Z,22.17
2023-05-18T06:04:13.783Z,22.19
2023-05-18T06:04:45.257Z,22.18
2023-05-18T06:05:16.656Z,22.17
2023-05-18T06:05:48.155Z,22.17
2023-05-18T06:06:19.619Z,22.16
2023-05-18T06:06:51.041Z,22.20
2023-05-18T06:07:22.622Z,22.21
2023-05-18T06:07:54.061Z,22.18
2023-05-18T06:08:25.458Z,22.21
2023-05-18T06:08:56.885Z,22.22
2023-05-18T06:09:28.291Z,22.20
2023-05-18T06:09:59.705Z,22.18
2023-05-18T06:10:31.110Z,22.17
2023-05-18T06:11:02.578Z,22.16
2023-05-18T06:11:34.047Z,22.16
2023-05-18T06:12:05.495Z,22.21
2023-05-18T06:12:36.908Z,22.18
2023-05-18T06:13:08.351Z,22.20
2023-05-18T06:13:39.745Z,22.18
2023-05-18T06:14:11.147Z,22.17
2023-05-18T06:14:42.542Z,22.18
2023-05-18T06:15:13.953Z,22.21
2023-05-18T06:15:45.328Z,22.23
2023-05-18T06:16:16.781Z,22.22
2023-05-18T06:16:48.190Z,22.19
2023-05-18T06:17:19.778Z,22.20
2023-05-18T06:17:51.229Z,22.17
2023-05-18T06:18:22.711Z,22.17
2023-05-18T06:18:54.187Z,22.17
2023-05-18T06:19:25.686Z,22.17
2023-05-18T06:19:57.164Z,22.21
2023-05-18T06:20:28.623Z,22.22
2023-05-18T06:21:00.051Z,22.18
2023-05-18T06:21:31.582Z,22.23
2023-05-18T06:22:03.029Z,22.23
2023-05-18T06:22:34.420Z,22.21
2023-05-18T06:23:05.836Z,22.18
2023-05-18T06:23:39.551Z,22.23
2023-05-18T06:24:12.436Z,22.25
2023-05-18T06:24:43.873Z,22.25
2023-05-18T06:25:15.318Z,22.22
2023-05-18T06:25:46.793Z,22.19
2023-05-18T06:26:18.288Z,22.19
2023-05-18T06:26:49.781Z,22.21
2023-05-18T06:27:21.319Z,22.22
2023-05-18T06:27:52.798Z,22.23
2023-05-18T06:28:24.252Z,22.23
2023-05-18T06:28:55.704Z,22.19
2023-05-18T06:29:27.160Z,22.22
2023-05-18T06:29:58.591Z,22.24
2023-05-18T06:30:30.037Z,22.18
2023-05-18T06:31:01.484Z,22.20
2023-05-18T06:31:32.891Z,22.23
2023-05-18T06:32:04.292Z,22.19
2023-05-18T06:32:35.800Z,22.19
2023-05-18T06:33:07.306Z,22.26
2023-05-18T06:33:38.727Z,22.21
2023-05-18T06:34:10.164Z,22.24
2023-05-18T06:34:41.586Z,22.23
2023-05-18T06:35:13.037Z,22.24
2023-05-18T06:35:44.516Z,22.23
2023-05-18T06:36:15.989Z,22.23
2023-05-18T06:36:47.414Z,22.25
2023-05-18T06:37:18.878Z,22.27
2023-05-18T06:37:50.287Z,22.27
2023-05-18T06:38:21.900Z,22.23
2023-05-18T06:38:53.360Z,22.30
2023-05-18T06:39:24.872Z,22.27
2023-05-18T06:39:56.290Z,22.28
2023-05-18T06:40:27.707Z,22.23
2023-05-18T06:40:59.107Z,22.22
2023-05-18T06:41:30.498Z,22.25
2023-05-18T06:42:01.968Z,22.26
2023-05-18T06:42:33.432Z,22.24
2023-05-18T06:43:04.843Z,22.25
2023-05-18T06:43:36.224Z,22.22
2023-05-18T06:44:07.623Z,22.23
2023-05-18T06:44:39.124Z,22.25
2023-05-18T06:45:10.549Z,22.25
2023-05-18T06:45:41.981Z,22.25
2023-05-18T06:46:13.458Z,22.26
2023-05-18T06:46:44.954Z,22.28